createdAt,value
2018-12-29T00:01:30.140Z,95151.06
2018-12-29T00:07:00.193Z,95168.92
2018-12-29T00:09:28.973Z,95166.95
2018-12-29T00:11:57.783Z,95167.30
2018-12-29T00:14:26.511Z,95171.45
2018-12-29T00:16:55.301Z,95175.39
2018-12-29T00:19:24.015Z,95167.06
2018-12-29T00:21:52.787Z,95180.00
2018-12-29T00:24:21.583Z,95179.66
2018-12-29T00:26:50.328Z,95181.04
2018-12-29T00:29:19.050Z,95180.70
2018-12-29T00:31:47.853Z,95181.88
2018-12-29T00:34:16.573Z,95183.73
2018-12-29T00:36:45.325Z,95188.70
2018-12-29T00:39:14.122Z,95184.42
2018-12-29T00:41:42.910Z,95193.63
2018-12-29T00:44:11.684Z,95199.65
2018-12-29T00:46:40.473Z,95206.36
2018-12-29T00:49:09.194Z,95211.72
2018-12-29T00:51:37.993Z,95209.63
2018-12-29T00:54:06.791Z,95206.99
2018-12-29T00:56:35.570Z,95208.94
2018-12-29T00:59:04.497Z,95210.41
2018-12-29T01:01:33.282Z,95211.69
2018-12-29T01:04:02.033Z,95219.47
2018-12-29T01:06:30.745Z,95218.42
2018-12-29T01:08:59.548Z,95217.03
2018-12-29T01:11:28.260Z,95215.53
2018-12-29T01:13:57.027Z,95216.81
2018-12-29T01:16:25.798Z,95214.00
2018-12-29T01:18:54.578Z,95221.06
2018-12-29T01:21:23.358Z,95220.02
2018-12-29T01:23:52.093Z,95217.70
2018-12-29T01:26:20.902Z,95224.33
2018-12-29T01:28:49.637Z,95227.69
2018-12-29T01:31:18.336Z,95224.80
2018-12-29T01:34:26.941Z,95227.23
2018-12-29T01:36:55.655Z,95226.65
2018-12-29T01:39:24.411Z,95226.42
2018-12-29T01:41:53.204Z,95227.20
2018-12-29T01:44:21.941Z,95222.57
2018-12-29T01:46:50.721Z,95222.80
2018-12-29T01:49:19.510Z,95228.36
2018-12-29T01:51:48.227Z,95226.59
2018-12-29T01:54:56.827Z,95219.09
2018-12-29T01:57:25.606Z,95221.77
2018-12-29T01:59:54.325Z,95220.14
2018-12-29T02:02:23.111Z,95221.53
2018-12-29T02:04:51.828Z,95218.41
2018-12-29T02:07:20.601Z,95228.25
2018-12-29T02:09:49.325Z,95226.39
2018-12-29T02:12:18.081Z,95223.50
2018-12-29T02:14:46.865Z,95229.66
2018-12-29T02:17:15.585Z,95223.63
2018-12-29T02:19:44.355Z,95223.53
2018-12-29T02:22:13.089Z,95230.81
2018-12-29T02:24:41.858Z,95228.05
2018-12-29T02:27:10.664Z,95230.25
2018-12-29T02:29:39.487Z,95225.26
2018-12-29T02:32:08.211Z,95226.53
2018-12-29T02:34:37.006Z,95219.94
2018-12-29T02:37:05.699Z,95220.29
2018-12-29T02:39:34.519Z,95226.41
2018-12-29T02:44:38.370Z,95222.94
2018-12-29T02:47:07.220Z,95221.45
2018-12-29T02:49:35.983Z,95221.89
2018-12-29T02:52:04.771Z,95220.73
2018-12-29T02:54:33.504Z,95221.30
2018-12-29T02:57:02.283Z,95213.78
2018-12-29T02:59:31.013Z,95210.31
2018-12-29T03:01:59.797Z,95215.88
2018-12-29T03:04:28.513Z,95209.98
2018-12-29T03:06:57.233Z,95204.52
2018-12-29T03:09:26.085Z,95199.22
2018-12-29T03:11:54.965Z,95202.22
2018-12-29T03:14:23.687Z,95198.52
2018-12-29T03:16:52.526Z,95196.67
2018-12-29T03:19:21.334Z,95192.98
2018-12-29T03:21:50.118Z,95191.45
2018-12-29T03:24:18.844Z,95191.45
2018-12-29T03:26:47.574Z,95191.13
2018-12-29T03:29:16.356Z,95196.54
2018-12-29T03:31:45.112Z,95193.41
2018-12-29T03:34:13.869Z,95187.62
2018-12-29T03:36:42.646Z,95193.17
2018-12-29T03:39:11.371Z,95193.06
2018-12-29T03:41:40.202Z,95194.81
2018-12-29T03:44:08.977Z,95192.37
2018-12-29T03:46:37.750Z,95195.27
2018-12-29T03:49:06.471Z,95189.01
2018-12-29T03:51:35.248Z,95184.97
2018-12-29T03:54:03.967Z,95189.33
2018-12-29T03:56:32.754Z,95189.24
2018-12-29T03:59:01.526Z,95184.95
2018-12-29T04:01:30.281Z,95185.42
2018-12-29T04:03:59.072Z,95180.67
2018-12-29T04:06:27.793Z,95179.44
2018-12-29T04:09:35.321Z,95185.45
2018-12-29T04:15:04.574Z,95177.69
2018-12-29T04:17:33.321Z,95177.21
2018-12-29T04:20:02.192Z,95180.67
2018-12-29T04:22:30.932Z,95174.80
2018-12-29T04:24:59.705Z,95168.11
2018-12-29T04:27:28.421Z,95172.80
2018-12-29T04:29:57.143Z,95179.72
2018-12-29T04:32:45.204Z,95179.38
2018-12-29T04:35:14.000Z,95180.43
2018-12-29T04:37:42.783Z,95178.81
2018-12-29T04:40:11.574Z,95184.61
2018-12-29T04:42:40.337Z,95189.00
2018-12-29T04:45:09.138Z,95187.40
2018-12-29T04:47:37.944Z,95187.58
2018-12-29T04:53:20.515Z,95179.52
2018-12-29T04:55:49.237Z,95179.29
2018-12-29T04:58:18.153Z,95182.52
2018-12-29T05:00:46.934Z,95183.28
2018-12-29T05:03:15.757Z,95185.83
2018-12-29T05:05:44.538Z,95188.77
2018-12-29T05:08:13.322Z,95189.27
2018-12-29T05:10:42.076Z,95186.83
2018-12-29T05:13:10.883Z,95191.77
2018-12-29T05:15:39.595Z,95191.41
2018-12-29T05:18:08.404Z,95207.67
2018-12-29T05:20:37.152Z,95195.78
2018-12-29T05:23:05.997Z,95201.02
2018-12-29T05:25:34.710Z,95203.69
2018-12-29T05:28:03.487Z,95194.81
2018-12-29T05:30:32.234Z,95206.84
2018-12-29T05:33:01.008Z,95213.42
2018-12-29T05:35:29.734Z,95208.44
2018-12-29T05:37:58.517Z,95207.98
2018-12-29T05:40:27.256Z,95208.07
2018-12-29T05:42:56.033Z,95210.72
2018-12-29T05:45:24.853Z,95216.48
2018-12-29T05:47:53.613Z,95223.73
2018-12-29T05:50:22.503Z,95225.84
2018-12-29T05:52:51.393Z,95228.82
2018-12-29T05:55:20.173Z,95224.44
2018-12-29T05:57:48.918Z,95231.47
2018-12-29T06:00:17.831Z,95231.12
2018-12-29T06:02:46.638Z,95225.66
2018-12-29T06:05:15.456Z,95228.66
2018-12-29T06:07:44.288Z,95227.70
2018-12-29T06:10:13.095Z,95229.30
2018-12-29T06:12:41.838Z,95229.64
2018-12-29T06:15:10.679Z,95226.36
2018-12-29T06:18:19.292Z,95230.78
2018-12-29T06:20:48.011Z,95234.38
2018-12-29T06:23:17.817Z,95231.13
2018-12-29T06:26:26.485Z,95235.30
2018-12-29T06:28:55.360Z,95233.81
2018-12-29T06:31:24.195Z,95238.75
2018-12-29T06:34:15.425Z,95238.30
2018-12-29T06:36:23.451Z,95244.08
2018-12-29T06:38:52.276Z,95245.42
2018-12-29T06:41:35.224Z,95258.64
2018-12-29T06:43:51.499Z,95252.64
2018-12-29T06:46:20.350Z,95247.41
2018-12-29T06:48:49.090Z,95257.94
2018-12-29T06:51:18.002Z,95261.22
2018-12-29T06:56:42.320Z,95265.86
2018-12-29T07:02:06.035Z,95264.98
2018-12-29T07:04:34.829Z,95264.27
2018-12-29T07:07:03.695Z,95260.11
2018-12-29T07:09:32.492Z,95255.75
2018-12-29T07:12:01.381Z,95262.91
2018-12-29T07:14:30.122Z,95265.48
2018-12-29T07:16:58.972Z,95264.48
2018-12-29T07:19:27.684Z,95264.52
2018-12-29T07:21:56.437Z,95269.20
2018-12-29T07:24:25.203Z,95267.53
2018-12-29T07:26:54.024Z,95276.42
2018-12-29T07:29:22.907Z,95277.89
2018-12-29T07:31:54.709Z,95274.77
2018-12-29T07:34:23.629Z,95270.97
2018-12-29T07:36:55.173Z,95258.86
2018-12-29T07:39:24.008Z,95252.31
2018-12-29T07:41:52.844Z,95253.64
2018-12-29T07:44:21.587Z,95252.68
2018-12-29T07:49:45.568Z,95252.56
2018-12-29T07:52:14.339Z,95247.63
2018-12-29T07:55:14.318Z,95232.01
2018-12-29T08:00:30.607Z,95231.79
2018-12-29T08:02:59.413Z,95240.88
2018-12-29T08:05:28.156Z,95234.80
2018-12-29T08:08:48.591Z,95230.75
2018-12-29T08:11:07.270Z,95239.75
2018-12-29T08:13:38.790Z,95229.02
2018-12-29T08:16:19.514Z,95232.64
2018-12-29T08:18:38.048Z,95240.19
2018-12-29T08:21:06.794Z,95252.39
2018-12-29T08:26:30.120Z,95271.34
2018-12-29T08:32:07.160Z,95267.53
2018-12-29T08:34:35.919Z,95282.47
2018-12-29T08:37:04.739Z,95287.95
2018-12-29T08:39:33.615Z,95281.70
2018-12-29T08:42:42.307Z,95288.60
2018-12-29T08:45:11.261Z,95296.39
2018-12-29T08:47:43.079Z,95289.28
2018-12-29T08:50:13.201Z,95292.05
2018-12-29T08:52:42.616Z,95285.30
2018-12-29T08:55:11.379Z,95283.02
2018-12-29T08:57:40.298Z,95291.94
2018-12-29T09:00:09.235Z,95293.73
2018-12-29T09:02:38.129Z,95294.36
2018-12-29T09:05:07.273Z,95294.20
2018-12-29T09:07:50.810Z,95303.12
2018-12-29T09:10:06.559Z,95301.24
2018-12-29T09:12:35.319Z,95300.67
2018-12-29T09:15:04.130Z,95301.55
2018-12-29T09:17:32.899Z,95309.21
2018-12-29T09:20:01.685Z,95301.13
2018-12-29T09:22:30.437Z,95294.36
2018-12-29T09:24:59.477Z,95291.36
2018-12-29T09:27:28.282Z,95305.19
2018-12-29T09:29:57.006Z,95309.52
2018-12-29T09:32:25.821Z,95304.16
2018-12-29T09:35:13.919Z,95299.81
2018-12-29T09:37:42.663Z,95302.23
2018-12-29T09:40:11.391Z,95291.84
2018-12-29T09:42:40.184Z,95296.33
2018-12-29T09:45:08.982Z,95294.62
2018-12-29T09:47:37.798Z,95293.23
2018-12-29T09:50:46.413Z,95293.66
2018-12-29T09:53:15.215Z,95284.58
2018-12-29T09:55:44.023Z,95293.80
2018-12-29T09:58:12.741Z,95297.39
2018-12-29T10:00:41.525Z,95286.84
2018-12-29T10:03:10.262Z,95288.78
2018-12-29T10:05:39.148Z,95293.61
2018-12-29T10:08:07.972Z,95292.64
2018-12-29T10:10:36.701Z,95282.84
2018-12-29T10:13:05.517Z,95282.81
2018-12-29T10:15:34.326Z,95289.56
2018-12-29T10:18:03.152Z,95285.02
2018-12-29T10:20:31.889Z,95277.36
2018-12-29T10:23:00.641Z,95279.97
2018-12-29T10:25:30.716Z,95277.06
2018-12-29T10:30:48.625Z,95269.09
2018-12-29T10:33:17.345Z,95272.02
2018-12-29T10:35:46.178Z,95266.76
2018-12-29T10:41:09.255Z,95262.14
2018-12-29T10:43:37.983Z,95259.53
2018-12-29T10:46:06.820Z,95253.45
2018-12-29T10:48:35.609Z,95257.30
2018-12-29T10:51:04.326Z,95256.30
2018-12-29T10:53:33.113Z,95256.02
2018-12-29T10:56:02.140Z,95249.92
2018-12-29T10:58:31.011Z,95248.87
2018-12-29T11:00:59.880Z,95244.47
2018-12-29T11:03:28.661Z,95241.14
2018-12-29T11:05:57.487Z,95243.11
2018-12-29T11:08:26.398Z,95235.58
2018-12-29T11:10:55.483Z,95226.86
2018-12-29T11:16:19.577Z,95214.78
2018-12-29T11:18:48.533Z,95212.48
2018-12-29T11:21:17.458Z,95215.88
2018-12-29T11:23:46.262Z,95213.94
2018-12-29T11:26:15.099Z,95217.35
2018-12-29T11:28:44.009Z,95217.99
2018-12-29T11:31:13.035Z,95216.66
2018-12-29T11:33:42.010Z,95212.92
2018-12-29T11:36:10.785Z,95212.80
2018-12-29T11:38:39.772Z,95208.14
2018-12-29T11:41:09.158Z,95215.11
2018-12-29T11:43:37.953Z,95210.09
2018-12-29T11:46:49.012Z,95214.55
2018-12-29T11:49:18.398Z,95214.80
2018-12-29T11:54:21.114Z,95215.98
2018-12-29T11:56:49.872Z,95210.45
2018-12-29T11:59:18.679Z,95219.77
2018-12-29T12:01:47.592Z,95212.07
2018-12-29T12:04:16.424Z,95221.33
2018-12-29T12:06:45.348Z,95226.36
2018-12-29T12:09:16.160Z,95227.83
2018-12-29T12:11:44.947Z,95229.01
2018-12-29T12:14:13.847Z,95233.45
2018-12-29T12:16:42.728Z,95222.14
2018-12-29T12:19:11.763Z,95220.23
2018-12-29T12:24:29.843Z,95216.97
2018-12-29T12:26:58.796Z,95213.20
2018-12-29T12:29:27.653Z,95217.16
2018-12-29T12:31:56.577Z,95220.53
2018-12-29T12:34:25.566Z,95215.30
2018-12-29T12:36:54.470Z,95209.77
2018-12-29T12:39:23.456Z,95219.63
2018-12-29T12:41:52.267Z,95208.41
2018-12-29T12:44:21.013Z,95205.27
2018-12-29T12:46:50.052Z,95209.84
2018-12-29T12:49:18.897Z,95205.63
2018-12-29T12:51:47.894Z,95198.95
2018-12-29T12:54:16.723Z,95200.53
2018-12-29T12:56:45.546Z,95185.98
2018-12-29T12:59:14.525Z,95178.67
2018-12-29T13:01:43.296Z,95191.58
2018-12-29T13:04:12.075Z,95180.96
2018-12-29T13:06:40.905Z,95190.77
2018-12-29T13:09:11.581Z,95194.30
2018-12-29T13:11:40.578Z,95199.37
2018-12-29T13:14:09.489Z,95190.33
2018-12-29T13:16:38.205Z,95194.19
2018-12-29T13:19:07.085Z,95190.33
2018-12-29T13:21:37.777Z,95190.05
2018-12-29T13:24:06.704Z,95185.84
2018-12-29T13:26:35.564Z,95180.22
2018-12-29T13:29:04.365Z,95194.16
2018-12-29T13:31:33.337Z,95196.73
2018-12-29T13:34:02.195Z,95198.02
2018-12-29T13:36:31.186Z,95194.80
2018-12-29T13:39:00.216Z,95197.03
2018-12-29T13:41:29.108Z,95198.65
2018-12-29T13:43:58.078Z,95199.73
2018-12-29T13:46:26.950Z,95221.79
2018-12-29T13:48:55.796Z,95214.16
2018-12-29T13:51:24.527Z,95213.20
2018-12-29T13:53:53.388Z,95217.24
2018-12-29T13:56:31.189Z,95219.39
2018-12-29T13:59:00.052Z,95215.56
2018-12-29T14:01:28.941Z,95214.58
2018-12-29T14:03:57.647Z,95219.19
2018-12-29T14:07:06.352Z,95223.05
2018-12-29T14:09:35.248Z,95231.91
2018-12-29T14:12:04.137Z,95226.55
2018-12-29T14:14:33.030Z,95233.19
2018-12-29T14:17:01.772Z,95234.60
2018-12-29T14:19:30.622Z,95226.99
2018-12-29T14:21:59.398Z,95236.42
2018-12-29T14:24:29.124Z,95232.07
2018-12-29T14:26:58.826Z,95237.93
2018-12-29T14:29:27.835Z,95230.99
2018-12-29T14:31:56.945Z,95235.84
2018-12-29T14:34:25.683Z,95236.78
2018-12-29T14:36:56.435Z,95243.14
2018-12-29T14:39:25.212Z,95241.91
2018-12-29T14:44:29.858Z,95239.44
2018-12-29T14:53:07.143Z,95258.80
2018-12-29T14:55:35.876Z,95262.84
2018-12-29T14:58:04.720Z,95276.48
2018-12-29T15:00:33.555Z,95275.87
2018-12-29T15:03:02.402Z,95279.49
2018-12-29T15:05:31.251Z,95276.49
2018-12-29T15:08:00.089Z,95280.91
2018-12-29T15:10:29.559Z,95277.79
2018-12-29T15:12:59.991Z,95277.91
2018-12-29T15:15:30.441Z,95286.71
2018-12-29T15:17:59.295Z,95287.12
2018-12-29T15:20:31.423Z,95285.17
2018-12-29T15:23:00.607Z,95284.49
2018-12-29T15:25:29.625Z,95294.67
2018-12-29T15:27:58.697Z,95290.17
2018-12-29T15:30:27.608Z,95285.05
2018-12-29T15:33:36.462Z,95281.25
2018-12-29T15:38:53.078Z,95284.17
2018-12-29T15:41:22.077Z,95290.16
2018-12-29T15:43:52.785Z,95288.28
2018-12-29T15:46:41.118Z,95290.98
2018-12-29T15:49:10.033Z,95291.20
2018-12-29T15:54:38.205Z,95287.34
2018-12-29T15:57:27.340Z,95286.33
2018-12-29T16:00:15.601Z,95285.91
2018-12-29T16:02:44.390Z,95287.48
2018-12-29T16:05:13.199Z,95284.52
2018-12-29T16:07:52.892Z,95285.80
2018-12-29T16:10:21.650Z,95278.91
2018-12-29T16:12:50.443Z,95275.03
2018-12-29T16:19:08.573Z,95276.01
2018-12-29T16:21:37.673Z,95274.94
2018-12-29T16:24:06.557Z,95282.23
2018-12-29T16:26:35.431Z,95280.06
2018-12-29T16:29:04.282Z,95281.53
2018-12-29T16:31:33.169Z,95279.02
2018-12-29T16:39:52.615Z,95278.62
2018-12-29T16:42:33.141Z,95273.92
2018-12-29T16:44:52.025Z,95280.59
2018-12-29T16:47:21.209Z,95274.38
2018-12-29T16:49:50.111Z,95286.31
2018-12-29T16:52:20.623Z,95279.62
2018-12-29T16:54:49.476Z,95275.95
2018-12-29T16:57:30.347Z,95278.59
2018-12-29T17:02:43.858Z,95278.81
2018-12-29T17:05:12.863Z,95280.72
2018-12-29T17:07:41.606Z,95286.03
2018-12-29T17:10:10.408Z,95289.86
2018-12-29T17:12:39.346Z,95293.56
2018-12-29T17:15:09.896Z,95286.84
2018-12-29T17:17:38.817Z,95284.55
2018-12-29T17:20:07.710Z,95278.59
2018-12-29T17:22:36.914Z,95279.61
2018-12-29T17:28:19.493Z,95272.45
2018-12-29T17:33:56.498Z,95278.71
2018-12-29T17:36:25.236Z,95269.02
2018-12-29T17:38:54.097Z,95267.02
2018-12-29T17:41:22.941Z,95269.28
2018-12-29T17:44:12.969Z,95266.86
2018-12-29T17:46:42.006Z,95262.55
2018-12-29T17:49:25.263Z,95262.50
2018-12-29T17:51:53.486Z,95263.04
2018-12-29T17:54:52.116Z,95255.66
2018-12-29T18:02:35.744Z,95250.52
2018-12-29T18:08:05.312Z,95252.05
2018-12-29T18:10:34.243Z,95243.65
2018-12-29T18:13:34.407Z,95243.12
2018-12-29T18:15:53.327Z,95244.58
2018-12-29T18:23:52.974Z,95246.57
2018-12-29T18:26:24.860Z,95236.17
2018-12-29T18:28:53.805Z,95236.52
2018-12-29T18:31:22.978Z,95235.61
2018-12-29T18:34:31.954Z,95234.33
2018-12-29T18:37:00.834Z,95237.91
2018-12-29T18:42:27.477Z,95226.64
2018-12-29T18:44:56.748Z,95230.09
2018-12-29T18:50:44.689Z,95222.37
2018-12-29T18:56:01.152Z,95212.66
2018-12-29T18:58:29.925Z,95203.60
2018-12-29T19:00:58.773Z,95206.47
2018-12-29T19:03:27.580Z,95199.52
2018-12-29T19:05:58.085Z,95203.17
2018-12-29T19:08:27.030Z,95201.80
2018-12-29T19:10:55.823Z,95192.20
2018-12-29T19:13:24.774Z,95187.97
2018-12-29T19:15:53.842Z,95181.12
2018-12-29T19:18:22.577Z,95176.42
2018-12-29T19:20:51.673Z,95170.47
2018-12-29T19:23:22.110Z,95173.56
2018-12-29T19:25:52.690Z,95168.34
2018-12-29T19:28:23.155Z,95167.97
2018-12-29T19:30:52.071Z,95169.75
2018-12-29T19:33:23.000Z,95172.67
2018-12-29T19:35:53.538Z,95160.95
2018-12-29T19:38:24.014Z,95162.75
2018-12-29T19:41:32.754Z,95161.37
2018-12-29T19:44:01.598Z,95159.16
2018-12-29T19:46:30.703Z,95151.14
2018-12-29T19:48:59.502Z,95147.81
2018-12-29T19:51:30.021Z,95149.75
2018-12-29T19:53:58.812Z,95144.86
2018-12-29T19:56:27.638Z,95127.80
2018-12-29T19:59:11.597Z,95129.28
2018-12-29T20:01:40.375Z,95135.52
2018-12-29T20:04:09.508Z,95126.27
2018-12-29T20:06:52.486Z,95126.42
2018-12-29T20:09:28.315Z,95118.34
2018-12-29T20:11:58.816Z,95111.61
2018-12-29T20:14:27.621Z,95105.83
2018-12-29T20:16:56.348Z,95105.14
2018-12-29T20:19:25.195Z,95101.94
2018-12-29T20:21:54.082Z,95090.36
2018-12-29T20:24:24.548Z,95090.96
2018-12-29T20:26:53.304Z,95089.41
2018-12-29T20:29:22.108Z,95084.05
2018-12-29T20:31:50.843Z,95082.16
2018-12-29T20:34:19.558Z,95077.69
2018-12-29T20:36:50.155Z,95075.63
2018-12-29T20:39:18.893Z,95069.72
2018-12-29T20:41:47.637Z,95065.03
2018-12-29T20:44:16.569Z,95067.97
2018-12-29T20:46:45.392Z,95075.97
2018-12-29T20:49:16.132Z,95063.22
2018-12-29T20:51:44.934Z,95061.77
2018-12-29T20:54:13.741Z,95057.16
2018-12-29T20:56:42.460Z,95065.59
2018-12-29T20:59:11.273Z,95063.98
2018-12-29T21:01:39.997Z,95059.67
2018-12-29T21:04:08.713Z,95054.58
2018-12-29T21:06:37.519Z,95055.21
2018-12-29T21:12:20.322Z,95043.38
2018-12-29T21:14:49.126Z,95041.13
2018-12-29T21:17:37.174Z,95023.86
2018-12-29T21:20:45.850Z,95031.17
2018-12-29T21:23:14.862Z,95019.64
2018-12-29T21:25:43.668Z,95019.22
2018-12-29T21:28:12.553Z,95009.30
2018-12-29T21:30:41.334Z,95021.18
2018-12-29T21:33:10.231Z,95011.99
2018-12-29T21:35:38.981Z,95012.45
2018-12-29T21:38:09.505Z,95004.54
2018-12-29T21:40:39.872Z,94998.97
2018-12-29T21:43:08.860Z,95002.84
2018-12-29T21:45:37.735Z,94993.44
2018-12-29T21:48:06.521Z,94982.41
2018-12-29T21:50:35.497Z,94984.76
2018-12-29T21:53:16.271Z,94982.47
2018-12-29T21:55:34.777Z,94978.47
2018-12-29T21:58:03.550Z,94982.75
2018-12-29T22:00:32.292Z,94981.69
2018-12-29T22:03:12.796Z,94988.32
2018-12-29T22:05:31.642Z,94976.20
2018-12-29T22:08:00.426Z,94975.85
2018-12-29T22:10:29.175Z,94978.66
2018-12-29T22:12:57.899Z,94968.85
2018-12-29T22:15:26.787Z,94970.89
2018-12-29T22:17:57.263Z,94958.61
2018-12-29T22:20:33.074Z,94962.44
2018-12-29T22:22:57.577Z,94958.48
2018-12-29T22:25:26.484Z,94950.02
2018-12-29T22:27:55.214Z,94940.80
2018-12-29T22:30:25.742Z,94939.42
2018-12-29T22:32:54.571Z,94939.85
2018-12-29T22:35:23.326Z,94926.08
2018-12-29T22:37:52.123Z,94929.08
2018-12-29T22:43:16.274Z,94921.05
2018-12-29T22:45:45.098Z,94925.91
2018-12-29T22:48:13.848Z,94920.30
2018-12-29T22:50:42.655Z,94924.94
2018-12-29T22:53:11.451Z,94928.40
2018-12-29T22:55:40.308Z,94917.19
2018-12-29T22:58:09.200Z,94917.14
2018-12-29T23:03:17.283Z,94906.09
2018-12-29T23:06:00.283Z,94903.20
2018-12-29T23:11:18.366Z,94897.53
2018-12-29T23:13:47.238Z,94896.76
2018-12-29T23:16:16.248Z,94881.89
2018-12-29T23:18:46.695Z,94874.68
2018-12-29T23:21:15.578Z,94871.20
2018-12-29T23:24:04.994Z,94872.41
2018-12-29T23:26:33.865Z,94864.66
2018-12-29T23:29:02.584Z,94860.91
2018-12-29T23:31:31.328Z,94848.68
2018-12-29T23:34:00.114Z,94849.48
2018-12-29T23:36:28.919Z,94843.43
2018-12-29T23:38:57.799Z,94846.13
2018-12-29T23:41:26.550Z,94843.52
2018-12-29T23:43:55.415Z,94837.34
2018-12-29T23:46:24.154Z,94832.50
2018-12-29T23:48:52.950Z,94831.56
2018-12-29T23:51:21.665Z,94830.65
2018-12-29T23:53:50.464Z,94830.43
2018-12-29T23:56:21.003Z,94822.86
2018-12-29T23:58:49.790Z,94816.02
